sensor_id;sensor_type;location;lat;lon;timestamp;temperature;humidity
7588;DHT22;3835;48.850;8.938;2023-08-07T00:01:33;10.90;99.90
7588;DHT22;3835;48.850;8.938;2023-08-07T00:04:00;10.90;99.90
7588;DHT22;3835;48.850;8.938;2023-08-07T00:06:28;10.90;99.90
7588;DHT22;3835;48.850;8.938;2023-08-07T00:08:55;10.90;99.90
7588;DHT22;3835;48.850;8.938;2023-08-07T00:11:22;11.00;99.90
7588;DHT22;3835;48.850;8.938;2023-08-07T00:13:48;11.00;99.90
7588;DHT22;3835;48.850;8.938;2023-08-07T00:16:15;11.00;99.90
7588;DHT22;3835;48.850;8.938;2023-08-07T00:18:42;11.00;99.90
7588;DHT22;3835;48.850;8.938;2023-08-07T00:21:09;11.00;99.90
7588;DHT22;3835;48.850;8.938;2023-08-07T00:23:37;11.00;99.90
7588;DHT22;3835;48.850;8.938;2023-08-07T00:26:04;11.00;99.90
7588;DHT22;3835;48.850;8.938;2023-08-07T00:28:31;11.00;99.90
7588;DHT22;3835;48.850;8.938;2023-08-07T00:30:58;11.00;99.90
7588;DHT22;3835;48.850;8.938;2023-08-07T00:33:24;11.10;99.90
7588;DHT22;3835;48.850;8.938;2023-08-07T00:35:51;11.10;99.90
7588;DHT22;3835;48.850;8.938;2023-08-07T00:38:18;11.10;99.90
7588;DHT22;3835;48.850;8.938;2023-08-07T00:40:46;11.10;99.90
7588;DHT22;3835;48.850;8.938;2023-08-07T00:43:13;11.10;99.90
7588;DHT22;3835;48.850;8.938;2023-08-07T00:45:43;11.10;99.90
7588;DHT22;3835;48.850;8.938;2023-08-07T00:48:11;11.10;99.90
7588;DHT22;3835;48.850;8.938;2023-08-07T00:50:39;11.10;99.90
7588;DHT22;3835;48.850;8.938;2023-08-07T00:53:06;11.10;99.90
7588;DHT22;3835;48.850;8.938;2023-08-07T00:55:33;11.10;99.90
7588;DHT22;3835;48.850;8.938;2023-08-07T00:58:02;11.10;99.90
7588;DHT22;3835;48.850;8.938;2023-08-07T01:00:29;11.10;99.90
7588;DHT22;3835;48.850;8.938;2023-08-07T01:02:56;11.10;99.90
7588;DHT22;3835;48.850;8.938;2023-08-07T01:05:24;11.10;99.90
7588;DHT22;3835;48.850;8.938;2023-08-07T01:07:53;11.10;99.90
7588;DHT22;3835;48.850;8.938;2023-08-07T01:10:25;11.10;99.90
7588;DHT22;3835;48.850;8.938;2023-08-07T01:13:01;11.00;99.90
7588;DHT22;3835;48.850;8.938;2023-08-07T01:15:30;11.10;99.90
7588;DHT22;3835;48.850;8.938;2023-08-07T01:17:59;11.10;99.90
7588;DHT22;3835;48.850;8.938;2023-08-07T01:20:26;11.10;99.90
7588;DHT22;3835;48.850;8.938;2023-08-07T01:22:54;11.10;99.90
7588;DHT22;3835;48.850;8.938;2023-08-07T01:25:21;11.10;99.90
7588;DHT22;3835;48.850;8.938;2023-08-07T01:27:53;11.00;99.90
7588;DHT22;3835;48.850;8.938;2023-08-07T01:30:27;11.10;99.90
7588;DHT22;3835;48.850;8.938;2023-08-07T01:33:02;11.00;99.90
7588;DHT22;3835;48.850;8.938;2023-08-07T01:35:34;11.00;99.90
7588;DHT22;3835;48.850;8.938;2023-08-07T01:38:03;11.00;99.90
7588;DHT22;3835;48.850;8.938;2023-08-07T01:40:31;11.00;99.90
7588;DHT22;3835;48.850;8.938;2023-08-07T01:42:59;11.00;99.90
7588;DHT22;3835;48.850;8.938;2023-08-07T01:45:28;11.00;99.90
7588;DHT22;3835;48.850;8.938;2023-08-07T01:47:54;11.00;99.90
7588;DHT22;3835;48.850;8.938;2023-08-07T01:50:22;11.00;99.90
7588;DHT22;3835;48.850;8.938;2023-08-07T01:52:50;11.00;99.90
7588;DHT22;3835;48.850;8.938;2023-08-07T01:55:20;11.00;99.90
7588;DHT22;3835;48.850;8.938;2023-08-07T01:57:47;11.00;99.90
7588;DHT22;3835;48.850;8.938;2023-08-07T02:00:13;11.00;99.90
7588;DHT22;3835;48.850;8.938;2023-08-07T02:02:40;11.00;99.90
7588;DHT22;3835;48.850;8.938;2023-08-07T02:05:07;11.00;99.90
7588;DHT22;3835;48.850;8.938;2023-08-07T02:07:34;11.00;99.90
7588;DHT22;3835;48.850;8.938;2023-08-07T02:10:01;11.10;99.90
7588;DHT22;3835;48.850;8.938;2023-08-07T02:12:29;11.10;99.90
7588;DHT22;3835;48.850;8.938;2023-08-07T02:14:57;11.10;99.90
7588;DHT22;3835;48.850;8.938;2023-08-07T02:17:24;11.00;99.90
7588;DHT22;3835;48.850;8.938;2023-08-07T02:19:51;11.10;99.90
7588;DHT22;3835;48.850;8.938;2023-08-07T02:22:18;11.00;99.90
7588;DHT22;3835;48.850;8.938;2023-08-07T02:24:45;11.00;99.90
7588;DHT22;3835;48.850;8.938;2023-08-07T02:27:12;11.00;99.90
7588;DHT22;3835;48.850;8.938;2023-08-07T02:29:40;11.00;99.90
7588;DHT22;3835;48.850;8.938;2023-08-07T02:32:07;11.00;99.90
7588;DHT22;3835;48.850;8.938;2023-08-07T02:34:33;10.90;99.90
7588;DHT22;3835;48.850;8.938;2023-08-07T02:37:00;10.90;99.90
7588;DHT22;3835;48.850;8.938;2023-08-07T02:39:27;10.90;99.90
7588;DHT22;3835;48.850;8.938;2023-08-07T02:41:54;10.80;99.90
7588;DHT22;3835;48.850;8.938;2023-08-07T02:44:20;10.80;99.90
7588;DHT22;3835;48.850;8.938;2023-08-07T02:46:49;10.80;99.90
7588;DHT22;3835;48.850;8.938;2023-08-07T02:49:15;10.80;99.90
7588;DHT22;3835;48.850;8.938;2023-08-07T02:51:42;10.70;99.90
7588;DHT22;3835;48.850;8.938;2023-08-07T02:54:09;10.80;99.90
7588;DHT22;3835;48.850;8.938;2023-08-07T02:56:36;10.80;99.90
7588;DHT22;3835;48.850;8.938;2023-08-07T02:59:02;10.80;99.90
7588;DHT22;3835;48.850;8.938;2023-08-07T03:01:30;10.80;99.90
7588;DHT22;3835;48.850;8.938;2023-08-07T03:03:58;10.80;99.90
7588;DHT22;3835;48.850;8.938;2023-08-07T03:06:25;10.80;99.90
7588;DHT22;3835;48.850;8.938;2023-08-07T03:08:51;10.80;99.90
7588;DHT22;3835;48.850;8.938;2023-08-07T03:11:18;10.80;99.90
7588;DHT22;3835;48.850;8.938;2023-08-07T03:13:45;10.80;99.90
7588;DHT22;3835;48.850;8.938;2023-08-07T03:16:12;10.80;99.90
7588;DHT22;3835;48.850;8.938;2023-08-07T03:18:38;10.80;99.90
7588;DHT22;3835;48.850;8.938;2023-08-07T03:21:07;10.70;99.90
7588;DHT22;3835;48.850;8.938;2023-08-07T03:23:34;10.70;99.90
7588;DHT22;3835;48.850;8.938;2023-08-07T03:26:04;10.70;99.90
7588;DHT22;3835;48.850;8.938;2023-08-07T03:28:32;10.70;99.90
7588;DHT22;3835;48.850;8.938;2023-08-07T03:30:58;10.70;99.90
7588;DHT22;3835;48.850;8.938;2023-08-07T03:33:25;10.70;99.90
7588;DHT22;3835;48.850;8.938;2023-08-07T03:35:52;10.70;99.90
7588;DHT22;3835;48.850;8.938;2023-08-07T03:38:20;10.70;99.90
7588;DHT22;3835;48.850;8.938;2023-08-07T03:40:47;10.60;99.90
7588;DHT22;3835;48.850;8.938;2023-08-07T03:43:14;10.70;99.90
7588;DHT22;3835;48.850;8.938;2023-08-07T03:45:41;10.70;99.90
7588;DHT22;3835;48.850;8.938;2023-08-07T03:48:08;10.70;99.90
7588;DHT22;3835;48.850;8.938;2023-08-07T03:50:35;10.60;99.90
7588;DHT22;3835;48.850;8.938;2023-08-07T03:53:03;10.60;99.90
7588;DHT22;3835;48.850;8.938;2023-08-07T03:55:33;10.60;99.90
7588;DHT22;3835;48.850;8.938;2023-08-07T03:58:00;10.60;99.90
7588;DHT22;3835;48.850;8.938;2023-08-07T04:00:27;10.60;99.90
7588;DHT22;3835;48.850;8.938;2023-08-07T04:02:54;10.60;99.90
7588;DHT22;3835;48.850;8.938;2023-08-07T04:05:21;10.60;99.90
7588;DHT22;3835;48.850;8.938;2023-08-07T04:07:47;10.70;99.90
7588;DHT22;3835;48.850;8.938;2023-08-07T04:10:14;10.70;99.90
7588;DHT22;3835;48.850;8.938;2023-08-07T04:12:42;10.70;99.90
7588;DHT22;3835;48.850;8.938;2023-08-07T04:15:09;10.80;99.90
7588;DHT22;3835;48.850;8.938;2023-08-07T04:17:36;10.80;99.90
7588;DHT22;3835;48.850;8.938;2023-08-07T04:20:04;10.80;99.90
7588;DHT22;3835;48.850;8.938;2023-08-07T04:22:31;10.90;99.90
7588;DHT22;3835;48.850;8.938;2023-08-07T04:24:58;10.90;99.90
7588;DHT22;3835;48.850;8.938;2023-08-07T04:27:25;11.00;99.90
7588;DHT22;3835;48.850;8.938;2023-08-07T04:29:54;11.00;99.90
7588;DHT22;3835;48.850;8.938;2023-08-07T04:32:20;11.00;99.90
7588;DHT22;3835;48.850;8.938;2023-08-07T04:34:47;11.00;99.90
7588;DHT22;3835;48.850;8.938;2023-08-07T04:37:14;11.10;99.90
7588;DHT22;3835;48.850;8.938;2023-08-07T04:39:41;11.10;99.90
7588;DHT22;3835;48.850;8.938;2023-08-07T04:42:08;11.10;99.90
7588;DHT22;3835;48.850;8.938;2023-08-07T04:44:34;11.10;99.90
7588;DHT22;3835;48.850;8.938;2023-08-07T04:47:03;11.10;99.90
7588;DHT22;3835;48.850;8.938;2023-08-07T04:49:29;11.10;99.90
7588;DHT22;3835;48.850;8.938;2023-08-07T04:51:56;11.10;99.90
7588;DHT22;3835;48.850;8.938;2023-08-07T04:54:23;11.10;99.90
7588;DHT22;3835;48.850;8.938;2023-08-07T04:56:50;11.10;99.90
7588;DHT22;3835;48.850;8.938;2023-08-07T04:59:16;11.10;99.90
7588;DHT22;3835;48.850;8.938;2023-08-07T05:01:43;11.10;99.90
7588;DHT22;3835;48.850;8.938;2023-08-07T05:04:11;11.10;99.90
7588;DHT22;3835;48.850;8.938;2023-08-07T05:06:39;11.20;99.90
7588;DHT22;3835;48.850;8.938;2023-08-07T05:09:06;11.20;99.90
7588;DHT22;3835;48.850;8.938;2023-08-07T05:11:33;11.20;99.90
7588;DHT22;3835;48.850;8.938;2023-08-07T05:14:00;11.30;99.90
7588;DHT22;3835;48.850;8.938;2023-08-07T05:16:26;11.40;99.90
7588;DHT22;3835;48.850;8.938;2023-08-07T05:18:53;11.50;99.90
7588;DHT22;3835;48.850;8.938;2023-08-07T05:21:21;11.50;99.90
7588;DHT22;3835;48.850;8.938;2023-08-07T05:23:48;11.60;99.90
7588;DHT22;3835;48.850;8.938;2023-08-07T05:26:18;11.60;99.90
7588;DHT22;3835;48.850;8.938;2023-08-07T05:28:45;11.70;99.90
7588;DHT22;3835;48.850;8.938;2023-08-07T05:31:12;11.80;99.90
7588;DHT22;3835;48.850;8.938;2023-08-07T05:33:39;11.80;99.90
7588;DHT22;3835;48.850;8.938;2023-08-07T05:36:06;11.90;99.90
7588;DHT22;3835;48.850;8.938;2023-08-07T05:38:34;12.00;99.90
7588;DHT22;3835;48.850;8.938;2023-08-07T05:41:01;12.10;99.90
7588;DHT22;3835;48.850;8.938;2023-08-07T05:43:28;12.10;99.90
7588;DHT22;3835;48.850;8.938;2023-08-07T05:45:54;12.20;99.90
7588;DHT22;3835;48.850;8.938;2023-08-07T05:48:21;12.30;99.90
7588;DHT22;3835;48.850;8.938;2023-08-07T05:50:48;12.20;99.90
7588;DHT22;3835;48.850;8.938;2023-08-07T05:53:15;12.10;99.90
7588;DHT22;3835;48.850;8.938;2023-08-07T05:55:43;12.10;99.90
7588;DHT22;3835;48.850;8.938;2023-08-07T05:58:10;12.10;99.90
7588;DHT22;3835;48.850;8.938;2023-08-07T06:00:37;12.20;99.90
7588;DHT22;3835;48.850;8.938;2023-08-07T06:03:04;12.20;99.90
7588;DHT22;3835;48.850;8.938;2023-08-07T06:05:31;12.30;99.90
7588;DHT22;3835;48.850;8.938;2023-08-07T06:07:57;12.30;99.90
7588;DHT22;3835;48.850;8.938;2023-08-07T06:10:24;12.40;99.90
7588;DHT22;3835;48.850;8.938;2023-08-07T06:12:52;12.40;99.90
7588;DHT22;3835;48.850;8.938;2023-08-07T06:15:20;12.40;99.90
7588;DHT22;3835;48.850;8.938;2023-08-07T06:17:46;12.50;99.90
7588;DHT22;3835;48.850;8.938;2023-08-07T06:20:13;12.50;99.90
7588;DHT22;3835;48.850;8.938;2023-08-07T06:22:41;12.50;99.90
7588;DHT22;3835;48.850;8.938;2023-08-07T06:25:08;12.70;99.90
7588;DHT22;3835;48.850;8.938;2023-08-07T06:27:35;12.80;99.90
7588;DHT22;3835;48.850;8.938;2023-08-07T06:30:04;12.80;99.90
7588;DHT22;3835;48.850;8.938;2023-08-07T06:32:31;13.00;99.90
7588;DHT22;3835;48.850;8.938;2023-08-07T06:34:58;13.10;99.90
7588;DHT22;3835;48.850;8.938;2023-08-07T06:37:25;12.90;99.90
7588;DHT22;3835;48.850;8.938;2023-08-07T06:39:52;12.80;99.90
7588;DHT22;3835;48.850;8.938;2023-08-07T06:42:19;13.00;99.90
7588;DHT22;3835;48.850;8.938;2023-08-07T06:44:46;13.10;99.90
7588;DHT22;3835;48.850;8.938;2023-08-07T06:47:14;13.40;99.90
7588;DHT22;3835;48.850;8.938;2023-08-07T06:49:41;13.20;99.90
7588;DHT22;3835;48.850;8.938;2023-08-07T06:52:08;13.30;99.90
7588;DHT22;3835;48.850;8.938;2023-08-07T06:54:34;13.40;99.90
7588;DHT22;3835;48.850;8.938;2023-08-07T06:57:01;13.40;99.90
7588;DHT22;3835;48.850;8.938;2023-08-07T06:59:28;13.20;99.90
7588;DHT22;3835;48.850;8.938;2023-08-07T07:01:55;13.10;99.90
7588;DHT22;3835;48.850;8.938;2023-08-07T07:04:23;13.10;99.90
7588;DHT22;3835;48.850;8.938;2023-08-07T07:06:50;13.10;99.90
7588;DHT22;3835;48.850;8.938;2023-08-07T07:09:17;13.00;99.90
7588;DHT22;3835;48.850;8.938;2023-08-07T07:11:44;12.90;99.90
7588;DHT22;3835;48.850;8.938;2023-08-07T07:14:11;13.00;99.90
7588;DHT22;3835;48.850;8.938;2023-08-07T07:16:37;13.00;99.90
7588;DHT22;3835;48.850;8.938;2023-08-07T07:19:04;13.00;99.90
7588;DHT22;3835;48.850;8.938;2023-08-07T07:21:35;13.10;99.90
7588;DHT22;3835;48.850;8.938;2023-08-07T07:24:02;13.40;99.90
7588;DHT22;3835;48.850;8.938;2023-08-07T07:26:29;13.70;99.90
7588;DHT22;3835;48.850;8.938;2023-08-07T07:28:56;14.10;99.90
7588;DHT22;3835;48.850;8.938;2023-08-07T07:31:23;14.10;99.90
7588;DHT22;3835;48.850;8.938;2023-08-07T07:33:49;14.10;99.90
7588;DHT22;3835;48.850;8.938;2023-08-07T07:36:17;14.30;99.90
7588;DHT22;3835;48.850;8.938;2023-08-07T07:38:47;14.40;99.90
7588;DHT22;3835;48.850;8.938;2023-08-07T07:41:14;14.80;99.90
7588;DHT22;3835;48.850;8.938;2023-08-07T07:43:41;14.70;99.90
7588;DHT22;3835;48.850;8.938;2023-08-07T07:46:07;14.80;99.90
7588;DHT22;3835;48.850;8.938;2023-08-07T07:48:34;14.50;99.90
7588;DHT22;3835;48.850;8.938;2023-08-07T07:51:01;14.40;99.90
7588;DHT22;3835;48.850;8.938;2023-08-07T07:53:28;14.20;99.90
7588;DHT22;3835;48.850;8.938;2023-08-07T07:55:56;13.70;99.90
7588;DHT22;3835;48.850;8.938;2023-08-07T07:58:24;13.50;99.90
7588;DHT22;3835;48.850;8.938;2023-08-07T08:00:51;13.50;99.90
7588;DHT22;3835;48.850;8.938;2023-08-07T08:03:19;13.70;99.90
7588;DHT22;3835;48.850;8.938;2023-08-07T08:05:48;13.80;99.90
7588;DHT22;3835;48.850;8.938;2023-08-07T08:08:15;13.80;99.90
7588;DHT22;3835;48.850;8.938;2023-08-07T08:10:42;13.80;99.90
7588;DHT22;3835;48.850;8.938;2023-08-07T08:13:10;13.80;99.90
7588;DHT22;3835;48.850;8.938;2023-08-07T08:15:37;14.10;99.90
7588;DHT22;3835;48.850;8.938;2023-08-07T08:18:04;14.00;99.90
7588;DHT22;3835;48.850;8.938;2023-08-07T08:20:31;14.30;99.90
7588;DHT22;3835;48.850;8.938;2023-08-07T08:22:58;14.90;99.90
7588;DHT22;3835;48.850;8.938;2023-08-07T08:25:25;15.30;99.90
7588;DHT22;3835;48.850;8.938;2023-08-07T08:27:52;15.60;99.90
7588;DHT22;3835;48.850;8.938;2023-08-07T08:30:20;15.60;99.90
7588;DHT22;3835;48.850;8.938;2023-08-07T08:32:47;15.60;99.90
7588;DHT22;3835;48.850;8.938;2023-08-07T08:35:13;15.40;99.90
7588;DHT22;3835;48.850;8.938;2023-08-07T08:37:40;15.60;99.90
7588;DHT22;3835;48.850;8.938;2023-08-07T08:40:08;15.60;99.90
7588;DHT22;3835;48.850;8.938;2023-08-07T08:42:39;15.60;99.90
7588;DHT22;3835;48.850;8.938;2023-08-07T08:45:09;16.00;99.90
7588;DHT22;3835;48.850;8.938;2023-08-07T08:47:38;16.30;99.90
7588;DHT22;3835;48.850;8.938;2023-08-07T08:50:08;16.30;99.90
7588;DHT22;3835;48.850;8.938;2023-08-07T08:52:37;16.10;99.90
7588;DHT22;3835;48.850;8.938;2023-08-07T08:55:05;16.40;99.90
7588;DHT22;3835;48.850;8.938;2023-08-07T08:57:33;16.40;99.90
7588;DHT22;3835;48.850;8.938;2023-08-07T09:00:00;16.20;99.90
7588;DHT22;3835;48.850;8.938;2023-08-07T09:02:32;16.60;99.90
7588;DHT22;3835;48.850;8.938;2023-08-07T09:05:00;16.90;99.90
7588;DHT22;3835;48.850;8.938;2023-08-07T09:07:28;17.00;99.90
7588;DHT22;3835;48.850;8.938;2023-08-07T09:09:56;16.90;99.90
7588;DHT22;3835;48.850;8.938;2023-08-07T09:12:26;16.70;99.90
7588;DHT22;3835;48.850;8.938;2023-08-07T09:14:57;16.40;99.90
7588;DHT22;3835;48.850;8.938;2023-08-07T09:17:26;16.30;99.90
7588;DHT22;3835;48.850;8.938;2023-08-07T09:19:54;15.70;99.90
7588;DHT22;3835;48.850;8.938;2023-08-07T09:22:23;15.50;99.90
7588;DHT22;3835;48.850;8.938;2023-08-07T09:24:49;15.70;99.90
7588;DHT22;3835;48.850;8.938;2023-08-07T09:27:16;15.70;99.90
7588;DHT22;3835;48.850;8.938;2023-08-07T09:29:43;15.90;99.90
7588;DHT22;3835;48.850;8.938;2023-08-07T09:32:12;16.10;99.90
7588;DHT22;3835;48.850;8.938;2023-08-07T09:34:39;16.30;99.90
7588;DHT22;3835;48.850;8.938;2023-08-07T09:37:07;16.20;99.90
7588;DHT22;3835;48.850;8.938;2023-08-07T09:39:35;15.80;99.90
7588;DHT22;3835;48.850;8.938;2023-08-07T09:42:02;16.00;99.90
7588;DHT22;3835;48.850;8.938;2023-08-07T09:44:35;15.90;99.90
7588;DHT22;3835;48.850;8.938;2023-08-07T09:47:11;15.80;99.90
7588;DHT22;3835;48.850;8.938;2023-08-07T09:49:39;16.20;99.90
7588;DHT22;3835;48.850;8.938;2023-08-07T09:52:07;16.40;99.90
7588;DHT22;3835;48.850;8.938;2023-08-07T09:54:37;16.40;99.90
7588;DHT22;3835;48.850;8.938;2023-08-07T09:57:06;16.40;99.90
7588;DHT22;3835;48.850;8.938;2023-08-07T09:59:34;16.80;99.90
7588;DHT22;3835;48.850;8.938;2023-08-07T10:02:02;16.70;99.90
7588;DHT22;3835;48.850;8.938;2023-08-07T10:04:32;17.00;99.90
7588;DHT22;3835;48.850;8.938;2023-08-07T10:07:02;17.40;99.90
7588;DHT22;3835;48.850;8.938;2023-08-07T10:09:30;17.20;99.90
7588;DHT22;3835;48.850;8.938;2023-08-07T10:14:43;16.80;99.90
7588;DHT22;3835;48.850;8.938;2023-08-07T10:17:11;16.70;99.90
7588;DHT22;3835;48.850;8.938;2023-08-07T10:19:38;16.60;99.90
7588;DHT22;3835;48.850;8.938;2023-08-07T10:22:05;16.40;99.90
7588;DHT22;3835;48.850;8.938;2023-08-07T10:24:35;16.20;99.90
7588;DHT22;3835;48.850;8.938;2023-08-07T10:27:05;15.80;99.90
7588;DHT22;3835;48.850;8.938;2023-08-07T10:29:34;15.80;99.90
7588;DHT22;3835;48.850;8.938;2023-08-07T10:32:03;16.00;99.90
7588;DHT22;3835;48.850;8.938;2023-08-07T10:34:33;16.10;99.90
7588;DHT22;3835;48.850;8.938;2023-08-07T10:37:00;16.50;99.90
7588;DHT22;3835;48.850;8.938;2023-08-07T10:39:27;17.00;99.90
7588;DHT22;3835;48.850;8.938;2023-08-07T10:41:54;17.60;99.90
7588;DHT22;3835;48.850;8.938;2023-08-07T10:44:22;17.80;99.90
7588;DHT22;3835;48.850;8.938;2023-08-07T10:46:51;17.30;99.90
7588;DHT22;3835;48.850;8.938;2023-08-07T10:49:32;16.70;99.90
7588;DHT22;3835;48.850;8.938;2023-08-07T10:51:59;16.60;99.90
7588;DHT22;3835;48.850;8.938;2023-08-07T10:54:28;16.20;99.90
7588;DHT22;3835;48.850;8.938;2023-08-07T10:56:54;15.90;99.90
7588;DHT22;3835;48.850;8.938;2023-08-07T10:59:21;16.10;99.90
7588;DHT22;3835;48.850;8.938;2023-08-07T11:01:55;16.40;99.90
7588;DHT22;3835;48.850;8.938;2023-08-07T11:04:22;16.80;99.90
7588;DHT22;3835;48.850;8.938;2023-08-07T11:06:52;16.70;99.90
7588;DHT22;3835;48.850;8.938;2023-08-07T11:09:19;16.60;99.90
7588;DHT22;3835;48.850;8.938;2023-08-07T11:11:47;16.50;99.90
7588;DHT22;3835;48.850;8.938;2023-08-07T11:14:17;16.40;99.90
7588;DHT22;3835;48.850;8.938;2023-08-07T11:16:46;16.20;99.90
7588;DHT22;3835;48.850;8.938;2023-08-07T11:19:14;16.20;99.90
7588;DHT22;3835;48.850;8.938;2023-08-07T11:21:41;15.90;99.90
7588;DHT22;3835;48.850;8.938;2023-08-07T11:24:12;15.50;99.90
7588;DHT22;3835;48.850;8.938;2023-08-07T11:26:39;15.40;99.90
7588;DHT22;3835;48.850;8.938;2023-08-07T11:29:06;15.30;99.90
7588;DHT22;3835;48.850;8.938;2023-08-07T11:31:33;15.20;99.90
7588;DHT22;3835;48.850;8.938;2023-08-07T11:34:00;15.30;99.90
7588;DHT22;3835;48.850;8.938;2023-08-07T11:36:28;15.30;99.90
7588;DHT22;3835;48.850;8.938;2023-08-07T11:38:55;15.30;99.90
7588;DHT22;3835;48.850;8.938;2023-08-07T11:41:23;15.30;99.90
7588;DHT22;3835;48.850;8.938;2023-08-07T11:43:50;15.30;99.90
7588;DHT22;3835;48.850;8.938;2023-08-07T11:46:16;15.40;99.90
7588;DHT22;3835;48.850;8.938;2023-08-07T11:48:44;15.50;99.90
7588;DHT22;3835;48.850;8.938;2023-08-07T11:51:11;15.80;99.90
7588;DHT22;3835;48.850;8.938;2023-08-07T11:53:40;16.00;99.90
7588;DHT22;3835;48.850;8.938;2023-08-07T11:56:08;16.60;99.90
7588;DHT22;3835;48.850;8.938;2023-08-07T11:58:38;16.70;99.90
7588;DHT22;3835;48.850;8.938;2023-08-07T12:01:06;16.70;99.90
7588;DHT22;3835;48.850;8.938;2023-08-07T12:03:36;17.00;99.90
7588;DHT22;3835;48.850;8.938;2023-08-07T12:06:06;16.90;99.90
7588;DHT22;3835;48.850;8.938;2023-08-07T12:08:34;16.90;99.90
7588;DHT22;3835;48.850;8.938;2023-08-07T12:11:02;17.30;99.90
7588;DHT22;3835;48.850;8.938;2023-08-07T12:13:29;17.30;99.90
7588;DHT22;3835;48.850;8.938;2023-08-07T12:15:58;17.60;99.90
7588;DHT22;3835;48.850;8.938;2023-08-07T12:18:27;17.50;99.90
7588;DHT22;3835;48.850;8.938;2023-08-07T12:20:57;17.60;99.90
7588;DHT22;3835;48.850;8.938;2023-08-07T12:23:25;17.40;99.90
7588;DHT22;3835;48.850;8.938;2023-08-07T12:25:52;17.80;99.90
7588;DHT22;3835;48.850;8.938;2023-08-07T12:28:19;18.40;99.90
7588;DHT22;3835;48.850;8.938;2023-08-07T12:30:47;18.40;99.90
7588;DHT22;3835;48.850;8.938;2023-08-07T12:33:15;18.30;99.90
7588;DHT22;3835;48.850;8.938;2023-08-07T12:35:42;18.50;99.90
7588;DHT22;3835;48.850;8.938;2023-08-07T12:38:09;18.60;99.90
7588;DHT22;3835;48.850;8.938;2023-08-07T12:40:36;18.60;99.90
7588;DHT22;3835;48.850;8.938;2023-08-07T12:43:04;18.30;99.90
7588;DHT22;3835;48.850;8.938;2023-08-07T12:45:30;18.10;99.90
7588;DHT22;3835;48.850;8.938;2023-08-07T12:47:57;18.30;99.90
7588;DHT22;3835;48.850;8.938;2023-08-07T12:50:26;18.10;99.90
7588;DHT22;3835;48.850;8.938;2023-08-07T12:52:53;17.70;99.90
7588;DHT22;3835;48.850;8.938;2023-08-07T12:55:19;17.40;99.90
7588;DHT22;3835;48.850;8.938;2023-08-07T12:57:46;17.00;99.90
7588;DHT22;3835;48.850;8.938;2023-08-07T13:00:15;16.90;99.90
7588;DHT22;3835;48.850;8.938;2023-08-07T13:02:44;16.70;99.90
7588;DHT22;3835;48.850;8.938;2023-08-07T13:05:11;16.70;99.90
7588;DHT22;3835;48.850;8.938;2023-08-07T13:07:41;16.60;99.90
7588;DHT22;3835;48.850;8.938;2023-08-07T13:10:11;16.80;99.90
7588;DHT22;3835;48.850;8.938;2023-08-07T13:12:39;16.90;99.90
7588;DHT22;3835;48.850;8.938;2023-08-07T13:15:09;17.00;99.90
7588;DHT22;3835;48.850;8.938;2023-08-07T13:17:38;17.20;99.90
7588;DHT22;3835;48.850;8.938;2023-08-07T13:20:06;17.90;99.90
7588;DHT22;3835;48.850;8.938;2023-08-07T13:22:33;17.80;99.90
7588;DHT22;3835;48.850;8.938;2023-08-07T13:25:02;17.60;99.90
7588;DHT22;3835;48.850;8.938;2023-08-07T13:27:29;17.50;99.90
7588;DHT22;3835;48.850;8.938;2023-08-07T13:29:56;17.60;99.90
7588;DHT22;3835;48.850;8.938;2023-08-07T13:32:23;17.90;99.90
7588;DHT22;3835;48.850;8.938;2023-08-07T13:34:49;18.10;99.90
7588;DHT22;3835;48.850;8.938;2023-08-07T13:37:16;18.30;99.90
7588;DHT22;3835;48.850;8.938;2023-08-07T13:39:43;18.40;99.90
7588;DHT22;3835;48.850;8.938;2023-08-07T13:42:11;18.10;99.90
7588;DHT22;3835;48.850;8.938;2023-08-07T13:44:38;17.40;99.90
7588;DHT22;3835;48.850;8.938;2023-08-07T13:47:05;17.50;99.90
7588;DHT22;3835;48.850;8.938;2023-08-07T13:49:33;17.60;99.90
7588;DHT22;3835;48.850;8.938;2023-08-07T13:52:00;17.80;99.90
7588;DHT22;3835;48.850;8.938;2023-08-07T13:54:27;18.00;99.90
7588;DHT22;3835;48.850;8.938;2023-08-07T13:56:54;18.40;99.90
7588;DHT22;3835;48.850;8.938;2023-08-07T13:59:22;18.30;99.90
7588;DHT22;3835;48.850;8.938;2023-08-07T14:01:49;18.00;99.90
7588;DHT22;3835;48.850;8.938;2023-08-07T14:04:15;17.60;99.90
7588;DHT22;3835;48.850;8.938;2023-08-07T14:06:42;17.30;99.90
7588;DHT22;3835;48.850;8.938;2023-08-07T14:09:10;17.00;99.90
7588;DHT22;3835;48.850;8.938;2023-08-07T14:11:37;17.10;99.90
7588;DHT22;3835;48.850;8.938;2023-08-07T14:14:04;17.20;99.90
7588;DHT22;3835;48.850;8.938;2023-08-07T14:16:32;17.40;99.90
7588;DHT22;3835;48.850;8.938;2023-08-07T14:18:59;17.50;99.90
7588;DHT22;3835;48.850;8.938;2023-08-07T14:21:25;17.70;99.90
7588;DHT22;3835;48.850;8.938;2023-08-07T14:23:52;17.60;99.90
7588;DHT22;3835;48.850;8.938;2023-08-07T14:26:19;17.70;99.90
7588;DHT22;3835;48.850;8.938;2023-08-07T14:28:46;17.60;99.90
7588;DHT22;3835;48.850;8.938;2023-08-07T14:31:13;17.80;99.90
7588;DHT22;3835;48.850;8.938;2023-08-07T14:33:41;17.80;99.90
7588;DHT22;3835;48.850;8.938;2023-08-07T14:36:07;18.00;99.90
7588;DHT22;3835;48.850;8.938;2023-08-07T14:38:34;18.20;99.90
7588;DHT22;3835;48.850;8.938;2023-08-07T14:41:01;18.30;99.90
7588;DHT22;3835;48.850;8.938;2023-08-07T14:43:29;18.10;99.90
7588;DHT22;3835;48.850;8.938;2023-08-07T14:45:56;17.70;99.90
7588;DHT22;3835;48.850;8.938;2023-08-07T14:48:23;17.50;99.90
7588;DHT22;3835;48.850;8.938;2023-08-07T14:50:51;17.20;99.90
7588;DHT22;3835;48.850;8.938;2023-08-07T14:53:18;17.00;99.90
7588;DHT22;3835;48.850;8.938;2023-08-07T14:55:45;17.00;99.90
7588;DHT22;3835;48.850;8.938;2023-08-07T14:58:12;16.80;99.90
7588;DHT22;3835;48.850;8.938;2023-08-07T15:00:39;16.60;99.90
7588;DHT22;3835;48.850;8.938;2023-08-07T15:03:05;16.70;99.90
7588;DHT22;3835;48.850;8.938;2023-08-07T15:05:32;16.70;99.90
7588;DHT22;3835;48.850;8.938;2023-08-07T15:08:02;16.90;99.90
7588;DHT22;3835;48.850;8.938;2023-08-07T15:10:29;17.30;99.90
7588;DHT22;3835;48.850;8.938;2023-08-07T15:12:56;17.60;99.90
7588;DHT22;3835;48.850;8.938;2023-08-07T15:15:24;18.10;99.90
7588;DHT22;3835;48.850;8.938;2023-08-07T15:17:50;18.30;99.90
7588;DHT22;3835;48.850;8.938;2023-08-07T15:20:18;18.10;99.90
7588;DHT22;3835;48.850;8.938;2023-08-07T15:22:45;17.50;99.90
7588;DHT22;3835;48.850;8.938;2023-08-07T15:25:14;17.20;99.90
7588;DHT22;3835;48.850;8.938;2023-08-07T15:27:41;17.00;99.90
7588;DHT22;3835;48.850;8.938;2023-08-07T15:30:08;17.00;99.90
7588;DHT22;3835;48.850;8.938;2023-08-07T15:32:36;17.40;99.90
7588;DHT22;3835;48.850;8.938;2023-08-07T15:35:04;17.70;99.90
7588;DHT22;3835;48.850;8.938;2023-08-07T15:37:31;17.60;99.90
7588;DHT22;3835;48.850;8.938;2023-08-07T15:39:57;17.80;99.90
7588;DHT22;3835;48.850;8.938;2023-08-07T15:42:25;18.10;99.90
7588;DHT22;3835;48.850;8.938;2023-08-07T15:44:52;18.40;99.90
7588;DHT22;3835;48.850;8.938;2023-08-07T15:47:19;18.50;99.90
7588;DHT22;3835;48.850;8.938;2023-08-07T15:49:46;18.70;99.90
7588;DHT22;3835;48.850;8.938;2023-08-07T15:52:14;18.90;99.90
7588;DHT22;3835;48.850;8.938;2023-08-07T15:54:41;19.10;99.90
7588;DHT22;3835;48.850;8.938;2023-08-07T15:57:08;18.80;99.90
7588;DHT22;3835;48.850;8.938;2023-08-07T15:59:37;18.70;99.90
7588;DHT22;3835;48.850;8.938;2023-08-07T16:02:04;18.70;99.90
7588;DHT22;3835;48.850;8.938;2023-08-07T16:04:32;18.60;99.90
7588;DHT22;3835;48.850;8.938;2023-08-07T16:06:59;18.40;99.90